Time;durP1;ratioP1;P1;durP2;ratioP2;P2;SDS_P1;SDS_P2;PMS_P1;PMS_P2;Temp;Humidity;BMP_temperature;BMP_pressure;BME280_temperature;BME280_humidity;BME280_pressure;Samples;Min_cycle;Max_cycle;Signal;HPM_P1;HPM_P2
2022/11/29 00:01:45;;;;;;;14.50;8.18;;;;;;;1.86;100.00;101698.70;1788525;80;21142;-76
2022/11/29 00:04:14;;;;;;;18.15;9.03;;;;;;;1.86;100.00;101697.36;1788519;80;21107;-76
2022/11/29 00:06:44;;;;;;;16.37;8.33;;;;;;;1.86;100.00;101709.52;1788390;80;21612;-74
2022/11/29 00:09:13;;;;;;;17.87;9.55;;;;;;;1.86;100.00;101706.33;1788303;80;21131;-74
2022/11/29 00:14:30;;;;;;;15.25;8.50;;;;;;;1.90;100.00;101706.48;1788676;80;21091;-76
2022/11/29 00:17:03;;;;;;;13.70;7.45;;;;;;;1.91;100.00;101701.94;1788339;80;21620;-75
2022/11/29 00:19:33;;;;;;;17.25;8.75;;;;;;;1.92;100.00;101703.67;1788542;80;21075;-74
2022/11/29 00:22:01;;;;;;;17.52;9.10;;;;;;;1.88;100.00;101698.11;1771055;80;22061;-75
2022/11/29 00:24:31;;;;;;;17.40;8.45;;;;;;;1.87;100.00;101704.48;1788699;80;21127;-74
2022/11/29 00:27:00;;;;;;;18.07;8.43;;;;;;;1.87;100.00;101704.48;1788349;80;21530;-75
2022/11/29 00:29:30;;;;;;;19.27;7.80;;;;;;;1.86;100.00;101706.81;1788322;80;21150;-75
2022/11/29 00:31:59;;;;;;;17.20;8.50;;;;;;;1.87;100.00;101698.59;1788449;79;21546;-75
2022/11/29 00:34:28;;;;;;;17.67;9.08;;;;;;;1.84;100.00;101696.60;1788329;80;21531;-75
2022/11/29 00:36:57;;;;;;;18.95;9.70;;;;;;;1.84;100.00;101694.77;1788625;80;21095;-75
2022/11/29 00:39:26;;;;;;;20.25;10.28;;;;;;;1.84;100.00;101700.66;1788305;80;21269;-77
2022/11/29 00:41:54;;;;;;;22.00;11.03;;;;;;;1.83;100.00;101698.92;1788524;80;21142;-73
2022/11/29 00:44:24;;;;;;;20.12;9.70;;;;;;;1.83;100.00;101701.63;1788344;80;21550;-76
2022/11/29 00:46:54;;;;;;;17.73;8.73;;;;;;;1.85;100.00;101697.84;1788298;80;21526;-76
2022/11/29 00:49:22;;;;;;;17.92;8.25;;;;;;;1.86;100.00;101691.46;1788638;80;21103;-77
2022/11/29 00:51:51;;;;;;;18.07;9.13;;;;;;;1.87;100.00;101702.65;1788334;80;21553;-77
2022/11/29 00:54:22;;;;;;;18.40;9.45;;;;;;;1.83;100.00;101699.79;1788716;80;21110;-76
2022/11/29 00:56:51;;;;;;;18.52;8.53;;;;;;;1.84;100.00;101704.70;1788376;80;21123;-77
2022/11/29 00:59:20;;;;;;;16.07;7.97;;;;;;;1.82;100.00;101710.22;1788282;80;21106;-78
2022/11/29 01:01:48;;;;;;;11.55;5.95;;;;;;;1.79;100.00;101696.93;1788472;80;21181;-78
2022/11/29 01:04:17;;;;;;;17.90;8.03;;;;;;;1.75;100.00;101702.66;1788350;80;21099;-78
2022/11/29 01:06:45;;;;;;;17.98;7.72;;;;;;;1.73;100.00;101704.61;1788424;80;21565;-79
2022/11/29 01:09:14;;;;;;;17.90;8.80;;;;;;;1.73;100.00;101698.72;1788535;79;21115;-78
2022/11/29 01:11:43;;;;;;;16.02;7.45;;;;;;;1.74;100.00;101704.50;1788304;80;21714;-78
2022/11/29 01:14:13;;;;;;;14.10;6.78;;;;;;;1.75;100.00;101697.26;1788317;80;21582;-77
2022/11/29 01:16:41;;;;;;;15.48;7.08;;;;;;;1.74;100.00;101705.84;1788446;80;21597;-76
2022/11/29 01:19:10;;;;;;;14.68;6.72;;;;;;;1.73;100.00;101708.66;1788384;80;21134;-78
2022/11/29 01:21:40;;;;;;;14.00;6.62;;;;;;;1.72;100.00;101695.64;1788519;80;21522;-77
2022/11/29 01:24:10;;;;;;;11.05;5.10;;;;;;;1.71;100.00;101697.09;1788265;80;21582;-77
2022/11/29 01:26:39;;;;;;;10.03;4.80;;;;;;;1.67;100.00;101696.94;1788471;80;21150;-77
2022/11/29 01:29:10;;;;;;;11.10;5.20;;;;;;;1.67;100.00;101698.29;1788592;79;21115;-78
2022/11/29 01:31:38;;;;;;;9.80;4.75;;;;;;;1.68;100.00;101698.67;1788364;80;21072;-76
2022/11/29 01:34:07;;;;;;;11.73;5.30;;;;;;;1.70;100.00;101704.34;1781574;80;21527;-76
2022/11/29 01:36:37;;;;;;;14.98;6.42;;;;;;;1.71;100.00;101701.16;1774810;81;21104;-76
2022/11/29 01:39:06;;;;;;;16.32;6.53;;;;;;;1.72;100.00;101702.39;1774540;81;21111;-77
2022/11/29 01:41:36;;;;;;;14.18;5.83;;;;;;;1.73;100.00;101701.91;1774783;81;21120;-75
2022/11/29 01:44:16;;;;;;;14.68;6.20;;;;;;;1.74;100.00;101700.94;1774603;81;21119;-77
2022/11/29 01:46:46;;;;;;;14.05;6.17;;;;;;;1.74;100.00;101695.53;1774449;79;21806;-76
2022/11/29 01:49:33;;;;;;;14.47;6.28;;;;;;;1.74;100.00;101704.98;1774525;81;21138;-75
2022/11/29 01:52:22;;;;;;;14.95;6.53;;;;;;;1.70;100.00;101701.64;1764380;81;21859;-75
2022/11/29 01:54:55;;;;;;;16.77;6.80;;;;;;;1.65;100.00;101697.05;1774517;81;21155;-77
2022/11/29 01:57:24;;;;;;;15.98;7.53;;;;;;;1.62;100.00;101700.45;1774567;81;21107;-77
2022/11/29 02:00:01;;;;;;;16.17;7.53;;;;;;;1.62;100.00;101692.34;1774573;81;21147;-77
2022/11/29 02:02:37;;;;;;;22.32;9.38;;;;;;;1.59;100.00;101697.00;1773992;80;21115;-77
2022/11/29 02:05:07;;;;;;;23.10;9.23;;;;;;;1.56;100.00;101695.86;1774529;80;22071;-77
2022/11/29 02:07:36;;;;;;;22.27;9.43;;;;;;;1.57;100.00;101694.89;1774604;81;21155;-78
2022/11/29 02:10:07;;;;;;;19.73;8.85;;;;;;;1.57;100.00;101696.23;1774591;81;21195;-76
2022/11/29 02:12:59;;;;;;;14.93;6.67;;;;;;;1.55;100.00;101687.37;1774500;81;21112;-77
2022/11/29 02:15:54;;;;;;;11.45;4.83;;;;;;;1.55;100.00;101680.63;1774288;80;21143;-75
2022/11/29 02:19:02;;;;;;;12.68;5.22;;;;;;;1.53;100.00;101680.36;1774402;81;21136;-76
2022/11/29 02:21:46;;;;;;;11.05;4.35;;;;;;;1.50;100.00;101681.92;1762167;81;21557;-77
2022/11/29 02:24:26;;;;;;;13.30;5.22;;;;;;;1.48;100.00;101688.78;1774728;81;21096;-77
2022/11/29 02:27:18;;;;;;;14.73;6.08;;;;;;;1.50;100.00;101683.27;1774627;80;21104;-76
2022/11/29 02:30:24;;;;;;;12.85;5.35;;;;;;;1.49;100.00;101688.30;1774653;80;21136;-75
2022/11/29 02:33:05;;;;;;;11.53;5.33;;;;;;;1.47;100.00;101693.81;1774776;79;21119;-76
2022/11/29 02:35:55;;;;;;;14.95;5.50;;;;;;;1.47;100.00;101698.34;1787684;80;21134;-74
2022/11/29 02:39:06;;;;;;;10.45;4.67;;;;;;;1.48;100.00;101705.47;1782800;80;21095;-76
2022/11/29 02:42:00;;;;;;;14.85;5.30;;;;;;;1.49;100.00;101705.36;1788733;79;21162;-75
2022/11/29 02:44:55;;;;;;;11.33;4.67;;;;;;;1.51;100.00;101691.27;1788315;79;21099;-75
2022/11/29 02:48:13;;;;;;;11.60;5.12;;;;;;;1.52;100.00;101697.53;1788463;80;21067;-74
2022/11/29 02:50:53;;;;;;;10.25;4.55;;;;;;;1.48;100.00;101710.88;1741770;82;21140;-74
2022/11/29 02:53:44;;;;;;;13.35;5.12;;;;;;;1.45;100.00;101710.61;1778004;80;21558;-75
2022/11/29 02:56:31;;;;;;;11.22;4.85;;;;;;;1.44;100.00;101703.95;1775198;80;21115;-75
2022/11/29 02:59:17;;;;;;;11.50;5.08;;;;;;;1.41;100.00;101707.73;1788455;79;21111;-77
2022/11/29 03:02:16;;;;;;;12.53;5.85;;;;;;;1.38;100.00;101712.00;1788196;80;21122;-75
2022/11/29 03:04:56;;;;;;;12.58;6.00;;;;;;;1.34;100.00;101706.44;1765002;80;21150;-73
2022/11/29 03:07:33;;;;;;;9.73;5.10;;;;;;;1.27;100.00;101701.05;1788312;80;21115;-74
2022/11/29 03:10:30;;;;;;;12.73;6.20;;;;;;;1.18;100.00;101707.95;1788493;80;21530;-74
2022/11/29 03:12:59;;;;;;;13.45;6.00;;;;;;;1.18;100.00;101700.33;1788529;80;21115;-74
2022/11/29 03:15:42;;;;;;;13.65;6.33;;;;;;;1.19;100.00;101703.41;1788689;80;21135;-74
2022/11/29 03:18:49;;;;;;;11.22;5.70;;;;;;;1.20;100.00;101710.55;1788410;80;21174;-75
2022/11/29 03:21:40;;;;;;;12.25;6.20;;;;;;;1.21;100.00;101703.69;1788430;80;21580;-72
2022/11/29 03:24:19;;;;;;;13.68;6.30;;;;;;;1.24;100.00;101698.56;1768847;80;21114;-72
2022/11/29 03:26:57;;;;;;;11.38;5.55;;;;;;;1.25;100.00;101693.54;1788601;80;21130;-72
2022/11/29 03:29:42;;;;;;;10.05;5.45;;;;;;;1.26;100.00;101704.23;1788339;80;21566;-74
2022/11/29 03:32:31;;;;;;;9.88;4.83;;;;;;;1.24;100.00;101707.53;1787880;80;21154;-74
2022/11/29 03:35:42;;;;;;;11.30;5.45;;;;;;;1.24;100.00;101718.81;1780397;80;21103;-73
2022/11/29 03:38:39;;;;;;;11.35;5.72;;;;;;;1.21;100.00;101719.02;1774587;81;21150;-73
2022/11/29 03:41:25;;;;;;;13.05;5.50;;;;;;;1.20;100.00;101707.36;1774650;81;21115;-73
2022/11/29 03:44:21;;;;;;;8.18;4.62;;;;;;;1.18;100.00;101721.93;1774629;81;21100;-73
2022/11/29 03:46:56;;;;;;;8.33;4.17;;;;;;;1.16;100.00;101730.62;1774948;81;21115;-72
2022/11/29 03:49:39;;;;;;;8.85;4.55;;;;;;;1.12;100.00;101735.36;1774567;81;21111;-75
2022/11/29 03:52:19;;;;;;;9.28;4.97;;;;;;;1.13;100.00;101730.34;1774638;81;21088;-70
2022/11/29 03:55:03;;;;;;;11.30;4.90;;;;;;;1.13;100.00;101722.73;1774834;81;21080;-75
2022/11/29 03:57:46;;;;;;;10.15;5.58;;;;;;;1.11;100.00;101729.58;1774255;80;21575;-73
2022/11/29 04:00:16;;;;;;;11.75;6.03;;;;;;;1.12;100.00;101739.89;1774530;80;21539;-73
2022/11/29 04:03:29;;;;;;;12.18;6.35;;;;;;;1.13;100.00;101730.83;1763839;79;21139;-74
2022/11/29 04:06:35;;;;;;;10.80;6.58;;;;;;;1.12;100.00;101740.77;1714200;82;21118;-74
2022/11/29 04:09:29;;;;;;;12.80;6.00;;;;;;;1.07;100.00;101750.14;1774614;81;21633;-73
2022/11/29 04:12:51;;;;;;;10.60;5.60;;;;;;;1.05;100.00;101743.49;1774754;81;21143;-74
2022/11/29 04:15:53;;;;;;;9.03;5.15;;;;;;;1.05;100.00;101741.28;1774252;80;21585;-73
2022/11/29 04:18:57;;;;;;;8.28;4.78;;;;;;;1.04;100.00;101747.64;1774533;81;21104;-74
2022/11/29 04:21:45;;;;;;;11.05;4.20;;;;;;;1.05;100.00;101749.38;1774564;79;21108;-73
2022/11/29 04:24:34;;;;;;;;;;;;;;;1.05;100.00;101753.42;1742669;80;21519;-74
2022/11/29 04:27:21;;;;;;;;;;;;;;;1.05;100.00;101746.68;1777395;80;20463;-74
2022/11/29 04:30:07;;;;;;;7.45;4.33;;;;;;;1.08;100.00;101737.02;1774262;80;20472;-73
2022/11/29 04:33:02;;;;;;;10.95;5.50;;;;;;;1.11;100.00;101743.56;1774763;81;21508;-73
2022/11/29 04:36:07;;;;;;;8.23;4.95;;;;;;;1.12;100.00;101745.30;1783748;80;21158;-74
2022/11/29 04:39:01;;;;;;;9.20;4.70;;;;;;;1.11;100.00;101751.17;1788505;80;21134;-73
2022/11/29 04:42:15;;;;;;;8.18;4.50;;;;;;;1.10;100.00;101749.94;1715624;80;21147;-74
2022/11/29 04:45:28;;;;;;;7.15;4.10;;;;;;;1.09;100.00;101753.60;1788361;80;21143;-74
2022/11/29 04:48:14;;;;;;;9.28;4.28;;;;;;;1.09;100.00;101752.25;1788276;80;21162;-74
2022/11/29 04:51:08;;;;;;;8.75;4.75;;;;;;;1.04;100.00;101750.34;1788305;80;21146;-73
2022/11/29 04:54:03;;;;;;;9.40;4.83;;;;;;;1.01;99.98;101755.95;1788320;79;21111;-75
2022/11/29 04:56:44;;;;;;;8.43;4.37;;;;;;;1.02;100.00;101757.68;1788296;80;21634;-73
2022/11/29 04:59:27;;;;;;;8.00;4.40;;;;;;;1.02;99.89;101754.50;1788516;80;21159;-72
2022/11/29 05:02:36;;;;;;;8.78;4.37;;;;;;;1.02;99.76;101752.28;1788355;80;21099;-74
2022/11/29 05:05:44;;;;;;;7.72;4.28;;;;;;;1.00;99.57;101755.08;1788717;80;21177;-72
2022/11/29 05:08:48;;;;;;;5.08;3.15;;;;;;;0.99;99.28;101747.95;1787627;79;21567;-72
2022/11/29 05:11:51;;;;;;;6.50;3.83;;;;;;;0.99;99.15;101740.34;1788182;79;21123;-72
2022/11/29 08:22:14;;;;;;;15.15;7.95;;;;;;;0.84;100.00;101840.23;1791052;80;28625;-66
2022/11/29 08:24:43;;;;;;;16.45;7.20;;;;;;;0.84;100.00;101842.94;1751584;82;21578;-65
2022/11/29 08:27:14;;;;;;;17.80;7.72;;;;;;;0.83;100.00;101846.59;1751646;82;21623;-65
2022/11/29 08:29:44;;;;;;;16.80;7.95;;;;;;;0.84;100.00;101845.63;1751850;81;21111;-65
2022/11/29 08:32:14;;;;;;;15.88;8.73;;;;;;;0.87;100.00;101837.82;1725092;82;21158;-67
2022/11/29 08:34:43;;;;;;;19.42;9.33;;;;;;;0.88;100.00;101839.55;1751516;82;21200;-66
2022/11/29 08:37:12;;;;;;;19.87;9.00;;;;;;;0.86;100.00;101822.11;1751834;81;21118;-66
2022/11/29 08:39:42;;;;;;;18.70;9.13;;;;;;;0.86;100.00;101828.86;1751646;81;21142;-67
2022/11/29 08:42:12;;;;;;;20.08;9.23;;;;;;;0.88;100.00;101835.02;1751562;81;21178;-66
2022/11/29 08:44:41;;;;;;;17.82;9.30;;;;;;;0.90;100.00;101830.39;1724562;82;21204;-66
2022/11/29 08:47:53;;;;;;;20.15;10.38;;;;;;;0.89;100.00;101821.05;1751438;82;21585;-65
2022/11/29 08:50:02;;;;;;;19.02;9.15;;;;;;;0.88;100.00;101815.27;1736377;82;21515;-66
2022/11/29 08:55:27;;;;;;;21.82;10.25;;;;;;;0.88;100.00;101818.83;1751757;82;21576;-67
2022/11/29 08:58:05;;;;;;;24.07;10.43;;;;;;;0.90;100.00;101818.25;1751603;82;21118;-65
2022/11/29 09:00:33;;;;;;;27.87;12.75;;;;;;;0.97;100.00;101825.45;1751601;81;21111;-64
2022/11/29 09:05:51;;;;;;;21.35;9.78;;;;;;;0.98;100.00;101819.09;1751810;81;21557;-67
2022/11/29 09:08:21;;;;;;;14.68;7.58;;;;;;;0.98;100.00;101818.22;1751462;82;21125;-65
2022/11/29 09:10:49;;;;;;;16.62;8.28;;;;;;;0.99;100.00;101818.12;1751607;81;21115;-65
2022/11/29 09:13:20;;;;;;;19.65;9.10;;;;;;;1.03;100.00;101811.55;1751707;82;21130;-65
2022/11/29 09:15:49;;;;;;;15.38;7.47;;;;;;;1.05;100.00;101811.45;1751421;82;21166;-66
2022/11/29 09:18:18;;;;;;;19.35;8.18;;;;;;;1.07;100.00;101809.52;1751627;81;21180;-67
2022/11/29 09:20:48;;;;;;;17.07;8.05;;;;;;;1.03;100.00;101804.81;1755543;81;21572;-67
2022/11/29 09:23:18;;;;;;;14.78;7.80;;;;;;;1.01;100.00;101808.09;1764981;81;21744;-64
2022/11/29 09:25:49;;;;;;;17.05;7.97;;;;;;;1.00;100.00;101807.71;1764747;81;21161;-67
2022/11/29 09:28:21;;;;;;;15.28;7.70;;;;;;;0.98;100.00;101807.43;1764510;81;21126;-67
2022/11/29 09:30:50;;;;;;;15.78;8.15;;;;;;;0.99;100.00;101805.11;1764644;81;21126;-69
2022/11/29 09:33:19;;;;;;;17.50;8.50;;;;;;;0.98;100.00;101802.03;1763908;80;21110;-70
2022/11/29 09:35:48;;;;;;;17.62;8.83;;;;;;;0.99;100.00;101801.06;1764565;81;21127;-70
2022/11/29 09:38:17;;;;;;;20.05;9.30;;;;;;;1.00;100.00;101808.20;1764187;81;21122;-70
2022/11/29 09:40:54;;;;;;;16.73;8.70;;;;;;;1.02;100.00;101800.38;1764572;81;21190;-69
2022/11/29 09:44:00;;;;;;;21.42;10.45;;;;;;;1.07;99.94;101798.72;1764862;81;21150;-70
2022/11/29 09:46:59;;;;;;;15.32;8.03;;;;;;;1.08;99.68;101793.70;1764466;81;21173;-72
2022/11/29 09:49:56;;;;;;;18.48;8.93;;;;;;;1.06;99.34;101789.76;1764748;81;21568;-72
2022/11/29 09:53:05;;;;;;;16.90;8.53;;;;;;;1.06;99.22;101782.15;1739021;81;21165;-69
2022/11/29 09:55:57;;;;;;;23.02;9.95;;;;;;;1.08;99.10;101780.20;1764500;81;21157;-69
2022/11/29 09:58:31;;;;;;;20.72;8.75;;;;;;;1.10;98.96;101783.19;1764838;81;21194;-68
2022/11/29 10:01:04;;;;;;;17.42;9.48;;;;;;;1.15;98.93;101781.53;1739384;81;21529;-70
2022/11/29 10:03:42;;;;;;;19.42;9.08;;;;;;;1.17;98.73;101779.59;1764644;81;21174;-71
2022/11/29 10:06:23;;;;;;;17.05;8.58;;;;;;;1.17;98.65;101778.24;1764493;81;21577;-71
2022/11/29 10:09:14;;;;;;;16.50;7.97;;;;;;;1.14;98.41;101776.61;1764372;81;21178;-70
2022/11/29 10:12:01;;;;;;;21.57;8.93;;;;;;;1.11;98.39;101780.87;1733857;81;21127;-70
2022/11/29 10:14:49;;;;;;;15.30;7.22;;;;;;;1.13;98.46;101784.33;1764498;81;21642;-70
2022/11/29 10:17:42;;;;;;;15.88;7.10;;;;;;;1.11;98.23;101783.57;1764480;81;21542;-70
2022/11/29 10:20:16;;;;;;;22.90;8.58;;;;;;;1.08;98.18;101795.05;1763970;80;21110;-68
2022/11/29 10:23:16;;;;;;;16.45;8.00;;;;;;;1.05;97.94;101793.91;1724924;82;21123;-69
2022/11/29 10:25:48;;;;;;;16.15;8.25;;;;;;;1.01;97.97;101789.20;1723827;82;21214;-69
2022/11/29 10:28:22;;;;;;;17.02;8.80;;;;;;;1.00;98.06;101789.30;1750769;82;21147;-70
2022/11/29 10:30:54;;;;;;;25.75;10.98;;;;;;;1.02;98.23;101787.37;1724885;82;21202;-69
2022/11/29 10:33:29;;;;;;;18.75;8.93;;;;;;;1.03;98.32;101785.05;1750798;82;21165;-69
2022/11/29 10:36:03;;;;;;;21.20;9.40;;;;;;;1.04;98.38;101789.48;1750791;82;21179;-69
2022/11/29 10:38:32;;;;;;;20.75;9.43;;;;;;;1.03;98.22;101789.09;1723534;82;21163;-72
2022/11/29 10:41:11;;;;;;;14.55;7.75;;;;;;;1.00;98.10;101795.56;1750816;81;21150;-70
2022/11/29 10:43:40;;;;;;;16.17;7.45;;;;;;;1.00;98.04;101790.66;1750957;82;21518;-68
2022/11/29 10:46:19;;;;;;;15.80;7.55;;;;;;;0.96;97.84;101784.59;1750948;82;21151;-69
2022/11/29 10:48:48;;;;;;;14.03;7.50;;;;;;;0.94;97.86;101790.09;1750343;81;21107;-70
2022/11/29 10:51:17;;;;;;;21.30;8.80;;;;;;;0.90;97.64;101789.91;1736054;80;21132;-69
2022/11/29 10:53:46;;;;;;;18.40;8.83;;;;;;;0.87;97.64;101780.67;1747574;82;21151;-70
2022/11/29 10:56:28;;;;;;;17.20;8.43;;;;;;;0.91;97.69;101789.43;1750919;82;21159;-71
2022/11/29 10:59:04;;;;;;;21.12;9.28;;;;;;;0.95;97.85;101788.26;1751157;82;21183;-69
2022/11/29 11:01:38;;;;;;;18.92;9.68;;;;;;;0.96;97.80;101787.29;1750590;82;21166;-71
2022/11/29 11:04:11;;;;;;;22.45;10.28;;;;;;;0.94;97.55;101790.09;1751212;82;21250;-71
2022/11/29 11:06:50;;;;;;;20.57;8.30;;;;;;;0.93;97.51;101792.89;1724375;82;21170;-69
2022/11/29 11:09:42;;;;;;;15.43;7.97;;;;;;;0.92;97.53;101789.33;1750803;82;21147;-69
2022/11/29 11:12:23;;;;;;;15.75;8.48;;;;;;;0.97;97.56;101792.20;1750850;82;21123;-68
2022/11/29 11:14:55;;;;;;;17.20;8.00;;;;;;;0.99;97.52;101794.31;1750901;81;21190;-70
2022/11/29 11:17:31;;;;;;;18.95;9.18;;;;;;;1.00;97.45;101792.00;1722042;82;21119;-70
2022/11/29 11:20:20;;;;;;;19.37;8.90;;;;;;;1.00;97.45;101790.17;1750750;82;21594;-70
2022/11/29 11:23:24;;;;;;;19.45;8.45;;;;;;;1.00;97.57;101786.13;1723904;82;21159;-69
2022/11/29 11:26:03;;;;;;;19.62;8.75;;;;;;;1.00;97.19;101786.61;1750469;82;21095;-70
2022/11/29 11:29:01;;;;;;;17.00;8.70;;;;;;;1.00;97.08;101791.52;1751151;82;21127;-71
2022/11/29 11:31:37;;;;;;;28.57;12.33;;;;;;;0.99;97.01;101793.83;1750806;81;21158;-70
2022/11/29 11:34:35;;;;;;;21.70;8.98;;;;;;;1.01;97.04;101795.08;1750625;82;21964;-70
2022/11/29 11:37:21;;;;;;;17.77;8.60;;;;;;;1.00;96.75;101787.47;1724898;82;21159;-69
2022/11/29 11:39:57;;;;;;;16.10;8.33;;;;;;;0.99;96.64;101784.39;1750784;82;21229;-71
2022/11/29 11:42:37;;;;;;;19.27;8.98;;;;;;;0.97;96.47;101793.55;1751173;82;21135;-69
2022/11/29 11:45:14;;;;;;;19.32;8.83;;;;;;;0.97;96.53;101786.81;1750787;82;21131;-69
2022/11/29 11:47:50;;;;;;;18.05;9.05;;;;;;;0.98;96.59;101789.41;1750635;81;21111;-71
2022/11/29 11:50:31;;;;;;;16.75;8.53;;;;;;;0.99;96.57;101780.34;1750949;81;21127;-70
2022/11/29 11:53:09;;;;;;;16.67;7.65;;;;;;;0.98;96.59;101784.01;1750932;82;21122;-71
2022/11/29 11:55:43;;;;;;;22.90;9.43;;;;;;;0.99;96.52;101775.42;1750053;82;21112;-70
2022/11/29 11:58:16;;;;;;;17.40;8.08;;;;;;;0.97;96.20;101777.37;1750739;82;21123;-70
2022/11/29 12:00:52;;;;;;;19.42;9.58;;;;;;;0.94;96.15;101769.86;1750903;82;21184;-70
2022/11/29 12:03:30;;;;;;;20.95;9.70;;;;;;;0.92;96.07;101768.23;1712379;82;21101;-70
2022/11/29 12:06:41;;;;;;;18.45;9.00;;;;;;;0.91;96.04;101767.36;1750818;82;21610;-72
2022/11/29 12:09:34;;;;;;;19.75;9.43;;;;;;;0.92;96.02;101762.83;1750930;82;21194;-71
2022/11/29 12:12:19;;;;;;;18.95;8.55;;;;;;;0.89;95.73;101768.43;1717932;82;21226;-70
2022/11/29 12:15:19;;;;;;;16.90;7.20;;;;;;;0.88;95.83;101760.82;1750967;81;21609;-69
2022/11/29 12:18:02;;;;;;;17.35;7.62;;;;;;;0.88;95.77;101765.35;1717759;82;21131;-71
2022/11/29 12:20:52;;;;;;;16.12;7.37;;;;;;;0.85;95.85;101765.07;1750804;82;21574;-73
2022/11/29 12:23:48;;;;;;;16.70;7.25;;;;;;;0.84;95.80;101763.83;1750758;82;21111;-72
2022/11/29 12:26:26;;;;;;;21.40;8.85;;;;;;;0.86;95.88;101769.50;1750795;81;21194;-71
2022/11/29 12:28:59;;;;;;;21.55;8.73;;;;;;;0.87;95.90;101771.23;1747046;81;21119;-70
2022/11/29 12:31:59;;;;;;;18.32;8.73;;;;;;;0.87;95.83;101765.84;1724215;82;21239;-71
2022/11/29 12:34:51;;;;;;;16.60;7.50;;;;;;;0.84;95.85;101766.04;1750835;81;21123;-69
2022/11/29 12:37:49;;;;;;;17.37;7.33;;;;;;;0.84;95.98;101773.27;1750760;82;21115;-72
2022/11/29 12:40:32;;;;;;;12.68;5.45;;;;;;;0.81;96.02;101774.33;1751176;82;21123;-70
2022/11/29 12:43:42;;;;;;;35.90;12.23;;;;;;;0.79;96.10;101777.62;1750790;82;21128;-69
2022/11/29 12:46:26;;;;;;;21.23;9.23;;;;;;;0.80;96.26;101777.14;1750834;82;21217;-71
2022/11/29 12:49:25;;;;;;;22.13;9.33;;;;;;;0.83;96.49;101775.10;1751164;81;21526;-70
2022/11/29 12:52:18;;;;;;;;;;;;;;;0.85;96.57;101775.86;1753312;82;21103;-71
2022/11/29 12:55:00;;;;;;;17.82;7.50;;;;;;;0.84;96.58;101775.48;1750970;82;20190;-69
2022/11/29 12:57:58;;;;;;;16.95;8.28;;;;;;;0.85;96.63;101773.16;1736763;82;21131;-72
2022/11/29 13:00:34;;;;;;;19.40;8.43;;;;;;;0.83;96.67;101779.15;1750831;82;21126;-70
2022/11/29 13:03:24;;;;;;;17.45;7.72;;;;;;;0.81;96.76;101772.98;1751176;82;21119;-69
2022/11/29 13:06:29;;;;;;;19.57;8.43;;;;;;;0.80;96.85;101769.91;1751067;81;21561;-70
2022/11/29 13:09:23;;;;;;;28.20;11.80;;;;;;;0.78;96.98;101770.49;1736184;82;21182;-71
2022/11/29 13:11:57;;;;;;;20.30;7.87;;;;;;;0.81;97.24;101768.94;1750820;82;21155;-69
2022/11/29 13:14:32;;;;;;;26.12;11.03;;;;;;;0.84;97.17;101783.58;1751056;82;21201;-72
2022/11/29 13:17:07;;;;;;;23.55;10.08;;;;;;;0.82;97.05;101776.55;1748223;82;21107;-71
2022/11/29 13:19:57;;;;;;;23.50;9.73;;;;;;;0.76;96.98;101802.09;1750840;81;21131;-70
2022/11/29 13:22:49;;;;;;;19.52;8.63;;;;;;;0.72;97.02;101780.34;1756031;81;21118;-69
2022/11/29 13:25:40;;;;;;;21.80;9.33;;;;;;;0.71;97.12;101785.83;1764587;81;21107;-71
2022/11/29 13:28:27;;;;;;;18.57;8.25;;;;;;;0.69;97.18;101783.23;1738092;81;21170;-70
2022/11/29 13:31:04;;;;;;;17.35;6.72;;;;;;;0.69;97.27;101776.97;1764905;81;21111;-70
2022/11/29 13:34:03;;;;;;;21.25;8.73;;;;;;;0.67;97.29;101785.17;1764619;81;21146;-70
2022/11/29 13:36:56;;;;;;;19.73;8.35;;;;;;;0.63;97.20;101776.86;1764605;81;21157;-70
2022/11/29 13:39:59;;;;;;;17.62;7.58;;;;;;;0.61;97.33;101781.48;1764902;81;21146;-69
2022/11/29 13:42:52;;;;;;;15.88;7.25;;;;;;;0.60;97.48;101778.41;1764496;81;21577;-68
2022/11/29 13:45:32;;;;;;;17.82;7.70;;;;;;;0.59;97.61;101790.16;1764644;81;21119;-67
2022/11/29 13:48:39;;;;;;;17.82;6.72;;;;;;;0.60;97.68;101787.84;1764386;81;21130;-67
2022/11/29 13:51:33;;;;;;;17.35;7.83;;;;;;;0.59;97.75;101789.68;1764004;81;21110;-67
2022/11/29 13:54:34;;;;;;;16.77;7.15;;;;;;;0.58;97.83;101784.38;1707165;81;21164;-67
2022/11/29 13:57:50;;;;;;;17.48;7.22;;;;;;;0.59;97.96;101794.20;1764423;81;21126;-67
2022/11/29 14:00:55;;;;;;;15.08;7.12;;;;;;;0.62;98.18;101798.05;1744503;81;21502;-66
2022/11/29 14:04:06;;;;;;;18.77;7.92;;;;;;;0.60;98.16;101799.98;1592104;90;21761;-68
2022/11/29 14:07:10;;;;;;;19.75;8.03;;;;;;;0.62;98.31;101799.41;1473390;97;21261;-65
2022/11/29 14:09:52;;;;;;;14.55;6.50;;;;;;;0.66;98.36;101798.76;1829704;77;22598;-69
2022/11/29 14:12:38;;;;;;;16.90;7.60;;;;;;;0.60;98.44;101807.59;1788281;80;21091;-66
2022/11/29 14:15:27;;;;;;;17.50;7.42;;;;;;;0.60;98.55;101802.69;1788543;80;21155;-67
2022/11/29 14:18:09;;;;;;;19.07;7.72;;;;;;;0.63;98.67;101795.74;1788239;79;21106;-68
2022/11/29 14:20:55;;;;;;;17.50;7.10;;;;;;;0.64;98.74;101790.73;1788298;80;21167;-67
2022/11/29 14:23:45;;;;;;;16.42;7.92;;;;;;;0.66;98.63;101792.87;1788505;79;21111;-64
2022/11/29 14:26:23;;;;;;;17.57;8.05;;;;;;;0.63;98.49;101792.56;1768964;80;22065;-65
2022/11/29 14:28:56;;;;;;;18.60;8.05;;;;;;;0.62;98.54;101785.92;1769466;80;21178;-65
2022/11/29 14:31:49;;;;;;;18.35;7.97;;;;;;;0.62;98.62;101790.83;1788477;79;21131;-66
2022/11/29 14:34:25;;;;;;;18.73;7.75;;;;;;;0.66;98.72;101783.44;1788355;80;21510;-63
2022/11/29 14:37:17;;;;;;;13.32;6.10;;;;;;;0.66;98.50;101793.36;1788528;79;21285;-62
2022/11/29 14:39:51;;;;;;;14.73;6.70;;;;;;;0.62;98.15;101794.01;1788653;80;21190;-63
2022/11/29 14:42:23;;;;;;;16.20;6.55;;;;;;;0.60;98.15;101786.02;1788440;80;21152;-64
2022/11/29 14:45:00;;;;;;;16.02;6.65;;;;;;;0.59;97.86;101784.77;1769628;80;21566;-62
2022/11/29 14:47:38;;;;;;;13.30;5.70;;;;;;;0.57;97.91;101781.30;1788748;80;21122;-64
2022/11/29 14:50:14;;;;;;;15.70;6.28;;;;;;;0.57;97.80;101778.12;1726688;80;21079;-63
2022/11/29 14:52:52;;;;;;;10.03;4.45;;;;;;;0.56;97.68;101784.48;1787759;79;21139;-58
2022/11/29 14:55:30;;;;;;;11.85;5.62;;;;;;;0.56;97.67;101795.27;1788514;80;21076;-65
2022/11/29 14:58:07;;;;;;;17.12;6.42;;;;;;;0.56;97.68;101786.31;1710369;83;21187;-63
2022/11/29 15:00:58;;;;;;;14.65;6.40;;;;;;;0.57;97.68;101788.05;1733248;83;21087;-62
2022/11/29 15:03:40;;;;;;;12.03;5.70;;;;;;;0.58;97.76;101789.30;1660944;86;21139;-64
2022/11/29 15:06:26;;;;;;;9.58;5.08;;;;;;;0.60;97.85;101790.06;1733799;83;21095;-62
2022/11/29 15:09:16;;;;;;;11.73;5.28;;;;;;;0.61;97.77;101795.84;1658688;86;21198;-62
2022/11/29 15:11:54;;;;;;;13.72;5.42;;;;;;;0.58;97.57;101796.52;1676118;85;21257;-67
2022/11/29 15:14:37;;;;;;;18.25;5.67;;;;;;;0.57;97.62;101798.84;1676133;85;21225;-64
2022/11/29 15:17:53;;;;;;;13.35;5.37;;;;;;;0.59;97.68;101799.12;1676487;85;21206;-65
2022/11/29 15:21:04;;;;;;;18.65;5.67;;;;;;;0.61;97.62;101800.37;1667777;85;21191;-62
2022/11/29 15:23:48;;;;;;;10.88;4.42;;;;;;;0.62;97.54;101802.10;1731356;82;21144;-65
2022/11/29 15:26:22;;;;;;;10.05;4.87;;;;;;;0.61;97.45;101801.72;1784732;80;21593;-62
2022/11/29 15:29:19;;;;;;;11.03;4.72;;;;;;;0.61;97.34;101805.77;1784990;79;21233;-63
2022/11/29 15:32:32;;;;;;;10.40;4.17;;;;;;;0.58;97.25;101811.36;1784917;79;21166;-61
2022/11/29 15:35:21;;;;;;;;;;;;;;;0.57;97.27;101801.53;1787008;79;21099;-63
2022/11/29 15:38:32;;;;;;;10.63;4.75;;;;;;;0.58;97.28;101801.92;1700773;84;20165;-63
2022/11/29 15:41:38;;;;;;;13.38;5.28;;;;;;;0.58;97.28;101804.61;1615090;87;21139;-65
2022/11/29 15:44:22;;;;;;;11.53;4.55;;;;;;;0.54;97.16;101808.47;1648349;87;21273;-63
2022/11/29 15:47:00;;;;;;;;;;;;;;;0.50;96.89;101806.94;1608373;87;21198;-64
2022/11/29 15:49:38;;;;;;;12.85;5.17;;;;;;;0.44;96.68;101805.98;1648328;87;20596;-64
2022/11/29 15:52:38;;;;;;;10.38;4.55;;;;;;;0.40;96.76;101799.92;1648368;87;21294;-63